createdAt,value
2018-08-24T00:00:14.357Z,18.80
2018-08-24T00:02:49.560Z,18.80
2018-08-24T00:05:24.971Z,18.80
2018-08-24T00:08:00.217Z,18.90
2018-08-24T00:10:35.102Z,18.70
2018-08-24T00:13:10.204Z,18.70
2018-08-24T00:24:36.439Z,18.80
2018-08-24T00:27:12.031Z,18.80
2018-08-24T00:29:46.733Z,18.80
2018-08-24T00:32:21.396Z,18.70
2018-08-24T00:34:56.227Z,18.70
2018-08-24T00:37:31.034Z,18.60
2018-08-24T00:40:06.671Z,18.60
2018-08-24T00:42:41.576Z,18.50
2018-08-24T00:45:16.502Z,18.40
2018-08-24T00:47:51.375Z,18.60
2018-08-24T00:50:26.295Z,18.70
2018-08-24T00:53:02.655Z,18.90
2018-08-24T00:55:37.603Z,19.00
2018-08-24T00:58:14.519Z,19.10
2018-08-24T01:00:49.990Z,19.20
2018-08-24T01:03:25.355Z,19.30
2018-08-24T01:06:00.786Z,19.30
2018-08-24T01:08:36.460Z,19.40
2018-08-24T01:11:12.632Z,19.30
2018-08-24T01:13:50.643Z,19.30
2018-08-24T01:16:31.474Z,19.40
2018-08-24T01:19:07.006Z,19.30
2018-08-24T01:21:42.438Z,18.60
2018-08-24T01:24:17.469Z,18.20
2018-08-24T01:26:57.294Z,18.10
2018-08-24T01:29:33.526Z,18.10
2018-08-24T01:32:08.367Z,17.90
2018-08-24T01:34:43.975Z,17.90
2018-08-24T01:37:18.738Z,17.90
2018-08-24T01:39:53.471Z,18.00
2018-08-24T01:42:28.293Z,18.00
2018-08-24T01:45:03.202Z,17.90
2018-08-24T01:47:38.059Z,17.90
2018-08-24T01:50:13.207Z,17.90
2018-08-24T01:52:48.222Z,17.90
2018-08-24T01:55:23.032Z,17.90
2018-08-24T01:57:58.194Z,17.90
2018-08-24T02:00:33.222Z,17.90
2018-08-24T02:03:07.972Z,17.90
2018-08-24T02:05:42.731Z,17.90
2018-08-24T02:08:17.755Z,17.80
2018-08-24T02:10:53.054Z,17.80
2018-08-24T02:13:33.133Z,17.80
2018-08-24T02:16:07.956Z,17.70
2018-08-24T02:18:48.772Z,17.80
2018-08-24T02:21:29.006Z,17.80
2018-08-24T02:24:04.682Z,17.90
2018-08-24T02:26:40.683Z,17.90
2018-08-24T02:29:15.649Z,17.90
2018-08-24T02:31:55.461Z,17.80
2018-08-24T02:34:30.397Z,17.80
2018-08-24T02:37:05.493Z,17.80
2018-08-24T02:39:40.766Z,17.80
2018-08-24T02:42:15.794Z,17.80
2018-08-24T02:44:50.926Z,17.80
2018-08-24T02:47:25.919Z,17.60
2018-08-24T02:50:00.753Z,17.70
2018-08-24T02:55:30.956Z,17.80
2018-08-24T02:58:11.277Z,17.80
2018-08-24T03:00:46.591Z,17.80
2018-08-24T03:03:21.310Z,17.80
2018-08-24T03:05:56.225Z,17.80
2018-08-24T03:08:30.968Z,17.90
2018-08-24T03:11:05.931Z,17.80
2018-08-24T03:13:40.761Z,17.80
2018-08-24T03:16:15.854Z,17.80
2018-08-24T03:18:50.866Z,17.70
2018-08-24T03:21:25.751Z,17.70
2018-08-24T03:24:00.735Z,17.50
2018-08-24T03:26:35.519Z,17.60
2018-08-24T03:29:10.656Z,17.60
2018-08-24T03:31:45.604Z,17.60
2018-08-24T03:34:21.186Z,17.60
2018-08-24T03:36:55.927Z,17.60
2018-08-24T03:39:30.742Z,17.50
2018-08-24T03:42:05.993Z,17.50
2018-08-24T03:44:40.875Z,17.50
2018-08-24T03:47:15.726Z,17.50
2018-08-24T03:49:51.270Z,17.50
2018-08-24T03:52:26.198Z,17.40
2018-08-24T03:55:00.899Z,17.40
2018-08-24T03:57:36.602Z,17.40
2018-08-24T04:00:16.152Z,17.50
2018-08-24T04:02:51.826Z,17.50
2018-08-24T04:05:26.645Z,17.40
2018-08-24T04:08:01.574Z,17.40
2018-08-24T04:10:36.822Z,17.40
2018-08-24T04:13:11.739Z,17.50
2018-08-24T04:15:46.622Z,17.40
2018-08-24T04:18:21.553Z,17.40
2018-08-24T04:20:57.404Z,17.40
2018-08-24T04:23:32.405Z,17.40
2018-08-24T04:26:07.226Z,17.40
2018-08-24T04:28:42.273Z,17.50
2018-08-24T04:31:17.427Z,17.50
2018-08-24T04:33:52.566Z,17.50
2018-08-24T04:36:27.622Z,17.50
2018-08-24T04:39:02.642Z,17.50
2018-08-24T04:41:37.741Z,17.50
2018-08-24T04:44:13.146Z,17.50
2018-08-24T04:46:49.739Z,17.50
2018-08-24T04:49:24.934Z,17.50
2018-08-24T04:52:00.110Z,17.50
2018-08-24T04:54:34.770Z,17.50
2018-08-24T04:57:09.929Z,17.60
2018-08-24T04:59:45.273Z,17.50
2018-08-24T05:02:20.044Z,17.60
2018-08-24T05:04:54.948Z,17.60
2018-08-24T05:07:29.907Z,17.60
2018-08-24T05:10:04.968Z,17.60
2018-08-24T05:12:39.757Z,17.70
2018-08-24T05:15:14.596Z,17.70
2018-08-24T05:17:49.206Z,17.70
2018-08-24T05:20:23.850Z,17.70
2018-08-24T05:22:59.346Z,17.80
2018-08-24T05:25:34.117Z,17.80
2018-08-24T05:28:08.999Z,17.80
2018-08-24T05:30:44.265Z,17.90
2018-08-24T05:33:19.233Z,17.80
2018-08-24T05:35:57.250Z,17.90
2018-08-24T05:38:32.145Z,17.90
2018-08-24T05:41:07.567Z,18.00
2018-08-24T05:43:42.524Z,18.00
2018-08-24T05:46:17.221Z,18.10
2018-08-24T05:48:52.789Z,18.10
2018-08-24T05:51:27.677Z,18.10
2018-08-24T05:54:02.509Z,18.10
2018-08-24T05:56:37.733Z,18.20
2018-08-24T05:59:12.947Z,18.20
2018-08-24T06:01:47.674Z,18.30
2018-08-24T06:04:22.806Z,18.30
2018-08-24T06:06:58.824Z,18.40
2018-08-24T06:09:33.741Z,18.50
2018-08-24T06:12:08.843Z,18.60
2018-08-24T06:14:44.351Z,18.70
2018-08-24T06:17:24.257Z,18.70
2018-08-24T06:19:59.432Z,18.60
2018-08-24T06:22:34.486Z,18.70
2018-08-24T06:25:10.073Z,18.80
2018-08-24T06:27:45.784Z,18.90
2018-08-24T06:30:20.996Z,19.00
2018-08-24T06:32:56.502Z,19.10
2018-08-24T06:35:32.867Z,19.20
2018-08-24T06:38:08.494Z,19.30
2018-08-24T06:40:44.906Z,19.30
2018-08-24T06:43:20.722Z,19.20
2018-08-24T06:45:56.233Z,19.10
2018-08-24T06:48:31.794Z,19.10
2018-08-24T06:51:14.967Z,19.10
2018-08-24T06:53:50.348Z,19.10
2018-08-24T06:56:29.278Z,19.00
2018-08-24T06:59:04.959Z,19.10
2018-08-24T07:01:40.105Z,19.20
2018-08-24T07:04:16.279Z,19.30
2018-08-24T07:06:51.558Z,19.20
2018-08-24T07:09:27.309Z,19.20
2018-08-24T07:12:02.679Z,19.30
2018-08-24T07:14:38.240Z,19.20
2018-08-24T07:17:14.753Z,19.30
2018-08-24T07:19:50.121Z,19.30
2018-08-24T07:22:25.641Z,19.50
2018-08-24T07:25:01.103Z,19.60
2018-08-24T07:27:36.707Z,19.40
2018-08-24T07:30:12.375Z,19.30
2018-08-24T07:32:54.697Z,19.10
2018-08-24T07:35:30.126Z,19.20
2018-08-24T07:38:05.637Z,19.10
2018-08-24T07:40:41.068Z,19.20
2018-08-24T07:43:16.813Z,19.30
2018-08-24T07:45:52.896Z,19.50
2018-08-24T07:48:28.997Z,19.60
2018-08-24T07:51:04.398Z,19.50
2018-08-24T07:53:40.158Z,19.50
2018-08-24T07:56:15.628Z,19.50
2018-08-24T07:58:51.382Z,19.70
2018-08-24T08:01:27.698Z,20.00
2018-08-24T08:04:04.990Z,20.20
2018-08-24T08:06:40.273Z,20.30
2018-08-24T08:09:16.495Z,20.40
2018-08-24T08:11:52.270Z,20.60
2018-08-24T08:14:28.316Z,20.70
2018-08-24T08:17:03.895Z,20.60
2018-08-24T08:19:39.537Z,20.70
2018-08-24T08:22:15.022Z,20.80
2018-08-24T08:24:50.494Z,20.90
2018-08-24T08:27:25.903Z,21.10
2018-08-24T08:30:02.778Z,21.00
2018-08-24T08:32:38.069Z,20.80
2018-08-24T08:35:13.330Z,21.20
2018-08-24T08:37:48.590Z,21.00
2018-08-24T08:40:24.019Z,21.10
2018-08-24T08:42:59.473Z,21.10
2018-08-24T08:45:35.112Z,21.80
2018-08-24T08:48:10.521Z,22.30
2018-08-24T08:50:45.920Z,22.80
2018-08-24T08:53:21.144Z,23.30
2018-08-24T08:55:56.864Z,23.30
2018-08-24T08:58:32.198Z,23.70
2018-08-24T09:01:07.642Z,23.70
2018-08-24T09:03:43.227Z,23.20
2018-08-24T09:06:19.813Z,22.60
2018-08-24T09:08:56.768Z,21.50
2018-08-24T09:11:32.180Z,21.40
2018-08-24T09:14:07.930Z,20.80
2018-08-24T09:16:43.445Z,20.70
2018-08-24T09:19:23.802Z,20.50
2018-08-24T09:22:04.770Z,20.40
2018-08-24T09:24:45.608Z,20.40
2018-08-24T09:27:26.140Z,20.40
2018-08-24T09:30:02.880Z,20.40
2018-08-24T09:32:38.525Z,20.40
2018-08-24T09:35:13.922Z,20.20
2018-08-24T09:37:49.590Z,20.10
2018-08-24T09:40:31.028Z,20.10
2018-08-24T09:43:13.090Z,20.20
2018-08-24T09:45:48.395Z,20.20
2018-08-24T09:48:26.140Z,20.20
2018-08-24T09:51:06.929Z,20.20
2018-08-24T09:54:15.039Z,20.30
2018-08-24T09:56:50.566Z,20.30
2018-08-24T09:59:27.150Z,20.50
2018-08-24T10:02:07.937Z,21.10
2018-08-24T10:04:49.265Z,21.60
2018-08-24T10:07:30.107Z,21.80
2018-08-24T10:10:06.018Z,22.40
2018-08-24T10:12:41.597Z,23.60
2018-08-24T10:15:16.871Z,24.40
2018-08-24T10:17:52.564Z,25.30
2018-08-24T10:20:27.818Z,25.90
2018-08-24T10:23:03.805Z,25.80
2018-08-24T10:25:39.354Z,26.40
2018-08-24T10:28:15.339Z,27.00
2018-08-24T10:30:51.290Z,26.60
2018-08-24T10:33:26.695Z,26.00
2018-08-24T10:36:02.530Z,26.20
2018-08-24T10:38:38.573Z,26.30
2018-08-24T10:41:13.914Z,26.40
2018-08-24T10:43:49.186Z,26.50
2018-08-24T10:46:24.603Z,26.60
2018-08-24T10:49:00.036Z,25.90
2018-08-24T10:51:35.369Z,24.60
2018-08-24T10:54:10.813Z,25.50
2018-08-24T10:56:46.262Z,25.50
2018-08-24T10:59:21.745Z,25.50
2018-08-24T11:01:57.170Z,24.80
2018-08-24T11:04:32.682Z,24.20
2018-08-24T11:07:08.364Z,23.60
2018-08-24T11:09:44.568Z,24.50
2018-08-24T11:12:19.846Z,24.30
2018-08-24T11:14:55.308Z,23.90
2018-08-24T11:18:35.503Z,23.70
2018-08-24T11:21:10.971Z,23.80
2018-08-24T11:23:47.118Z,23.10
2018-08-24T11:26:23.098Z,22.90
2018-08-24T11:28:58.313Z,21.90
2018-08-24T11:31:34.022Z,21.40
2018-08-24T11:34:09.701Z,21.00
2018-08-24T11:36:45.349Z,20.60
2018-08-24T11:39:20.903Z,20.80
2018-08-24T11:41:56.452Z,21.90
2018-08-24T11:44:32.087Z,23.40
2018-08-24T11:47:07.682Z,23.80
2018-08-24T11:49:43.669Z,23.00
2018-08-24T11:52:20.289Z,23.10
2018-08-24T11:54:55.698Z,23.20
2018-08-24T11:57:30.997Z,23.20
2018-08-24T12:00:07.334Z,23.50
2018-08-24T12:02:42.508Z,22.80
2018-08-24T12:05:18.823Z,21.20
2018-08-24T12:07:54.335Z,21.40
2018-08-24T12:10:30.118Z,21.90
2018-08-24T12:13:05.958Z,20.90
2018-08-24T12:15:41.614Z,21.60
2018-08-24T12:18:16.977Z,22.20
2018-08-24T12:20:52.449Z,21.10
2018-08-24T12:23:27.933Z,20.80
2018-08-24T12:26:03.416Z,20.50
2018-08-24T12:28:38.693Z,19.90
2018-08-24T12:31:14.387Z,20.20
2018-08-24T12:33:49.610Z,20.40
2018-08-24T12:36:24.935Z,20.20
2018-08-24T12:39:00.598Z,19.80
2018-08-24T12:41:35.911Z,20.00
2018-08-24T12:44:11.461Z,20.00
2018-08-24T12:46:47.349Z,20.10
2018-08-24T12:49:22.919Z,19.50
2018-08-24T12:51:58.666Z,18.80
2018-08-24T12:54:35.489Z,19.00
2018-08-24T12:57:10.709Z,19.30
2018-08-24T12:59:46.125Z,19.60
2018-08-24T13:02:21.833Z,20.00
2018-08-24T13:04:57.563Z,20.30
2018-08-24T13:07:33.270Z,20.80
2018-08-24T13:10:08.988Z,20.40
2018-08-24T13:12:44.418Z,20.00
2018-08-24T13:15:20.457Z,19.50
2018-08-24T13:17:56.402Z,19.70
2018-08-24T13:20:31.782Z,20.70
2018-08-24T13:23:06.987Z,20.50
2018-08-24T13:25:42.737Z,20.20
2018-08-24T13:28:18.546Z,20.20
2018-08-24T13:30:54.386Z,20.20
2018-08-24T13:33:29.830Z,20.20
2018-08-24T13:36:05.434Z,20.40
2018-08-24T13:38:40.897Z,20.20
2018-08-24T13:41:16.337Z,20.10
2018-08-24T13:43:51.775Z,19.60
2018-08-24T13:46:27.196Z,19.60
2018-08-24T13:49:02.839Z,19.00
2018-08-24T13:51:38.298Z,19.10
2018-08-24T13:54:13.620Z,18.90
2018-08-24T13:56:49.544Z,18.80
2018-08-24T13:59:25.594Z,18.60
2018-08-24T14:02:01.283Z,18.80
2018-08-24T14:04:36.889Z,18.50
2018-08-24T14:07:12.378Z,18.30
2018-08-24T14:09:47.940Z,18.40
2018-08-24T14:12:23.508Z,18.70
2018-08-24T14:14:58.877Z,18.70
2018-08-24T14:17:33.837Z,18.40
2018-08-24T14:20:09.085Z,18.50
2018-08-24T14:22:44.524Z,18.30
2018-08-24T14:25:19.825Z,18.60
2018-08-24T14:27:55.128Z,18.30
2018-08-24T14:30:30.757Z,18.40
2018-08-24T14:33:05.777Z,18.50
2018-08-24T14:35:40.637Z,18.30
2018-08-24T14:38:22.527Z,18.20
2018-08-24T14:40:57.687Z,18.20
2018-08-24T14:43:33.378Z,18.30
2018-08-24T14:46:13.617Z,18.10
2018-08-24T14:48:48.393Z,18.20
2018-08-24T14:51:23.234Z,18.20
2018-08-24T14:53:57.988Z,18.10
2018-08-24T14:56:32.843Z,17.90
2018-08-24T14:59:08.936Z,18.10
2018-08-24T15:01:43.662Z,18.40
2018-08-24T15:04:18.849Z,18.20
2018-08-24T15:06:54.647Z,18.10
2018-08-24T15:09:29.725Z,18.10
2018-08-24T15:12:04.506Z,18.00
2018-08-24T15:14:39.310Z,18.00
2018-08-24T15:17:20.742Z,17.90
2018-08-24T15:19:55.419Z,17.70
2018-08-24T15:22:31.486Z,17.70
2018-08-24T15:25:06.675Z,17.90
2018-08-24T15:27:41.419Z,17.90
2018-08-24T15:30:16.307Z,17.70
2018-08-24T15:32:51.142Z,17.80
2018-08-24T15:35:25.907Z,17.60
2018-08-24T15:38:01.064Z,17.70
2018-08-24T15:40:35.931Z,17.60
2018-08-24T15:43:11.069Z,17.60
2018-08-24T15:45:46.544Z,17.50
2018-08-24T15:48:21.636Z,17.40
2018-08-24T15:50:56.484Z,17.30
2018-08-24T15:53:31.272Z,17.10
2018-08-24T15:56:06.367Z,17.20
2018-08-24T15:58:41.406Z,17.20
2018-08-24T16:01:16.431Z,16.70
2018-08-24T16:03:51.475Z,16.40
2018-08-24T16:06:26.284Z,16.90
2018-08-24T16:09:01.223Z,16.80
2018-08-24T16:11:36.679Z,16.90
2018-08-24T16:14:11.766Z,17.10
2018-08-24T16:16:47.014Z,17.10
2018-08-24T16:19:21.805Z,17.10
2018-08-24T16:21:56.636Z,16.90
2018-08-24T16:24:31.699Z,16.80
2018-08-24T16:27:08.705Z,17.10
2018-08-24T16:29:43.732Z,17.10
2018-08-24T16:32:18.718Z,17.00
2018-08-24T16:34:57.031Z,17.00
2018-08-24T16:37:32.083Z,17.00
2018-08-24T16:40:07.735Z,17.00
2018-08-24T16:42:42.522Z,17.00
2018-08-24T16:45:17.466Z,17.10
2018-08-24T16:47:52.329Z,17.00
2018-08-24T16:50:27.291Z,16.90
2018-08-24T16:53:02.863Z,16.80
2018-08-24T16:55:37.736Z,16.80
2018-08-24T16:58:12.655Z,16.50
2018-08-24T17:00:48.081Z,16.70
2018-08-24T17:03:22.975Z,16.70
2018-08-24T17:05:58.168Z,16.60
2018-08-24T17:08:32.914Z,16.60
2018-08-24T17:11:08.230Z,16.50
2018-08-24T17:13:43.268Z,16.50
2018-08-24T17:16:18.111Z,16.50
2018-08-24T17:18:52.901Z,16.40
2018-08-24T17:21:27.899Z,16.40
2018-08-24T17:24:02.774Z,16.20
2018-08-24T17:26:37.751Z,16.40
2018-08-24T17:29:19.237Z,16.30
2018-08-24T17:31:54.437Z,16.00
2018-08-24T17:34:29.397Z,16.10
2018-08-24T17:37:05.102Z,16.10
2018-08-24T17:39:39.956Z,16.10
2018-08-24T17:42:14.693Z,16.10
2018-08-24T17:44:49.686Z,16.10
2018-08-24T17:47:24.746Z,16.10
2018-08-24T17:49:59.698Z,16.00
2018-08-24T17:52:34.762Z,16.10
2018-08-24T17:55:10.041Z,15.90
2018-08-24T17:57:44.967Z,16.00
2018-08-24T18:00:19.936Z,15.90
2018-08-24T18:02:54.610Z,16.10
2018-08-24T18:05:29.609Z,16.00
2018-08-24T18:08:06.045Z,15.90
2018-08-24T18:10:41.436Z,15.80
2018-08-24T18:13:16.618Z,15.90
2018-08-24T18:15:51.645Z,15.70
2018-08-24T18:18:26.555Z,15.70
2018-08-24T18:21:01.411Z,15.60
2018-08-24T18:23:36.204Z,15.60
2018-08-24T18:26:11.727Z,15.60
2018-08-24T18:28:47.049Z,15.60
2018-08-24T18:31:21.887Z,15.50
2018-08-24T18:33:56.540Z,15.40
2018-08-24T18:36:31.908Z,15.20
2018-08-24T18:39:09.547Z,15.20
2018-08-24T18:41:44.637Z,15.30
2018-08-24T18:44:19.602Z,15.30
2018-08-24T18:46:54.476Z,15.30
2018-08-24T18:49:29.388Z,15.30
2018-08-24T18:52:04.702Z,15.20
2018-08-24T18:54:39.584Z,15.10
2018-08-24T18:57:14.692Z,15.20
2018-08-24T18:59:50.326Z,15.20
2018-08-24T19:02:25.473Z,15.00
2018-08-24T19:05:00.446Z,15.00
2018-08-24T19:07:36.368Z,15.10
2018-08-24T19:10:11.395Z,15.10
2018-08-24T19:12:46.330Z,15.10
2018-08-24T19:15:28.088Z,15.10
2018-08-24T19:18:08.652Z,15.10
2018-08-24T19:20:48.999Z,15.10
2018-08-24T19:23:24.275Z,15.00
2018-08-24T19:25:59.093Z,14.90
2018-08-24T19:28:39.316Z,14.90
2018-08-24T19:31:14.491Z,14.80
2018-08-24T19:33:49.520Z,14.70
2018-08-24T19:36:24.497Z,14.70
2018-08-24T19:38:59.697Z,14.70
2018-08-24T19:41:39.845Z,14.70
2018-08-24T19:44:14.838Z,14.70
2018-08-24T19:46:49.931Z,14.50
2018-08-24T19:49:25.100Z,14.50
2018-08-24T19:51:59.965Z,14.50
2018-08-24T19:54:35.260Z,14.40
2018-08-24T19:57:15.644Z,14.40
2018-08-24T19:59:50.325Z,14.40
2018-08-24T20:02:25.010Z,14.30
2018-08-24T20:05:00.091Z,14.30
2018-08-24T20:07:40.192Z,14.20
2018-08-24T20:10:18.124Z,14.20
2018-08-24T20:12:52.787Z,14.20
2018-08-24T20:15:32.994Z,14.30
2018-08-24T20:18:08.070Z,14.20
2018-08-24T20:20:42.877Z,14.20
2018-08-24T20:23:17.925Z,14.30
2018-08-24T20:25:53.086Z,14.20
2018-08-24T20:28:28.187Z,14.20
2018-08-24T20:31:11.008Z,14.10
2018-08-24T20:33:45.950Z,14.00
2018-08-24T20:36:20.886Z,14.00
2018-08-24T20:38:55.772Z,14.10
2018-08-24T20:41:30.718Z,14.00
2018-08-24T20:44:05.487Z,14.10
2018-08-24T20:46:40.951Z,14.10
2018-08-24T20:49:15.847Z,14.00
2018-08-24T20:51:50.581Z,14.00
2018-08-24T20:54:25.404Z,14.00
2018-08-24T20:57:00.528Z,13.90
2018-08-24T20:59:35.593Z,13.90
2018-08-24T21:02:10.832Z,13.90
2018-08-24T21:04:46.374Z,13.80
2018-08-24T21:07:21.791Z,13.70
2018-08-24T21:09:56.701Z,13.60
2018-08-24T21:12:31.535Z,13.70
2018-08-24T21:15:06.774Z,13.70
2018-08-24T21:17:41.611Z,13.50
2018-08-24T21:20:23.374Z,13.60
2018-08-24T21:22:58.670Z,13.50
2018-08-24T21:25:33.366Z,13.50
2018-08-24T21:28:08.456Z,13.30
2018-08-24T21:30:43.483Z,13.30
2018-08-24T21:33:18.425Z,13.40
2018-08-24T21:35:54.185Z,13.20
2018-08-24T21:38:29.116Z,13.20
2018-08-24T21:41:04.159Z,13.10
2018-08-24T21:43:38.951Z,13.00
2018-08-24T21:46:13.711Z,13.00
2018-08-24T21:48:49.587Z,13.00
2018-08-24T21:51:24.470Z,13.10
2018-08-24T21:53:59.767Z,13.20
2018-08-24T21:56:34.703Z,13.30
2018-08-24T21:59:09.526Z,13.50
2018-08-24T22:01:44.704Z,13.60
2018-08-24T22:04:19.526Z,13.50
2018-08-24T22:06:54.199Z,13.60
2018-08-24T22:09:29.022Z,13.50
2018-08-24T22:12:03.963Z,13.60
2018-08-24T22:14:38.864Z,13.70
2018-08-24T22:17:20.535Z,13.80
2018-08-24T22:19:55.438Z,13.70
2018-08-24T22:22:30.289Z,13.80
2018-08-24T22:25:05.111Z,13.80
2018-08-24T22:27:40.162Z,13.90
2018-08-24T22:30:15.378Z,13.90
2018-08-24T22:32:50.514Z,13.90
2018-08-24T22:35:25.588Z,13.90
2018-08-24T22:38:01.100Z,13.90
2018-08-24T22:40:35.793Z,13.70
2018-08-24T22:43:16.815Z,13.60
2018-08-24T22:45:51.863Z,13.70
2018-08-24T22:48:26.786Z,13.70
2018-08-24T22:51:02.047Z,13.70
2018-08-24T22:53:36.999Z,13.60
2018-08-24T22:56:11.928Z,13.50
2018-08-24T22:58:47.537Z,13.50
2018-08-24T23:01:22.376Z,13.40
2018-08-24T23:03:57.189Z,13.40
2018-08-24T23:06:32.316Z,13.30
2018-08-24T23:09:08.594Z,13.30
2018-08-24T23:11:43.448Z,13.40
2018-08-24T23:14:18.367Z,13.30
2018-08-24T23:16:53.193Z,13.40
2018-08-24T23:19:27.959Z,13.30
2018-08-24T23:22:04.095Z,13.10
2018-08-24T23:24:38.859Z,13.20
2018-08-24T23:27:13.926Z,13.10
2018-08-24T23:29:49.554Z,13.10
2018-08-24T23:32:24.446Z,13.00
2018-08-24T23:34:59.318Z,13.00
2018-08-24T23:37:34.243Z,13.00
2018-08-24T23:40:08.989Z,13.00
2018-08-24T23:42:43.917Z,13.00
2018-08-24T23:45:18.762Z,13.00
2018-08-24T23:47:53.449Z,13.00
2018-08-24T23:50:28.565Z,12.90
2018-08-24T23:53:03.330Z,12.90
2018-08-24T23:55:38.360Z,12.90
2018-08-24T23:58:13.175Z,12.80
